sensor_id;sensor_type;location;lat;lon;timestamp;P1;durP1;ratioP1;P2;durP2;ratioP2
60436;SDS011;46289;51.992;4.498;2023-04-24T00:01:24;8.57;;;3.13;;
60436;SDS011;46289;51.992;4.498;2023-04-24T00:03:30;7.53;;;3.17;;
60436;SDS011;46289;51.992;4.498;2023-04-24T00:05:36;8.25;;;3.70;;
60436;SDS011;46289;51.992;4.498;2023-04-24T00:07:42;10.23;;;3.85;;
60436;SDS011;46289;51.992;4.498;2023-04-24T00:09:49;8.95;;;3.53;;
60436;SDS011;46289;51.992;4.498;2023-04-24T00:11:54;10.45;;;4.07;;
60436;SDS011;46289;51.992;4.498;2023-04-24T00:13:59;11.70;;;4.32;;
60436;SDS011;46289;51.992;4.498;2023-04-24T00:16:07;12.05;;;4.68;;
60436;SDS011;46289;51.992;4.498;2023-04-24T00:18:15;12.80;;;4.80;;
60436;SDS011;46289;51.992;4.498;2023-04-24T00:20:21;13.90;;;6.15;;
60436;SDS011;46289;51.992;4.498;2023-04-24T00:22:26;14.30;;;7.40;;
60436;SDS011;46289;51.992;4.498;2023-04-24T00:24:32;12.05;;;5.90;;
60436;SDS011;46289;51.992;4.498;2023-04-24T00:26:37;11.07;;;4.88;;
60436;SDS011;46289;51.992;4.498;2023-04-24T00:28:44;9.15;;;4.80;;
60436;SDS011;46289;51.992;4.498;2023-04-24T00:30:50;9.98;;;4.47;;
60436;SDS011;46289;51.992;4.498;2023-04-24T00:32:58;10.10;;;4.10;;
60436;SDS011;46289;51.992;4.498;2023-04-24T00:35:07;8.38;;;3.45;;
60436;SDS011;46289;51.992;4.498;2023-04-24T00:37:14;5.55;;;2.80;;
60436;SDS011;46289;51.992;4.498;2023-04-24T00:39:22;7.88;;;3.15;;
60436;SDS011;46289;51.992;4.498;2023-04-24T00:41:27;6.53;;;2.90;;
60436;SDS011;46289;51.992;4.498;2023-04-24T00:43:32;7.10;;;3.42;;
60436;SDS011;46289;51.992;4.498;2023-04-24T00:45:38;8.05;;;2.90;;
60436;SDS011;46289;51.992;4.498;2023-04-24T00:47:48;6.03;;;3.17;;
60436;SDS011;46289;51.992;4.498;2023-04-24T00:50:00;9.85;;;3.28;;
60436;SDS011;46289;51.992;4.498;2023-04-24T00:52:06;7.32;;;3.03;;
60436;SDS011;46289;51.992;4.498;2023-04-24T00:54:12;7.10;;;2.60;;
60436;SDS011;46289;51.992;4.498;2023-04-24T00:56:21;6.55;;;2.53;;
60436;SDS011;46289;51.992;4.498;2023-04-24T00:58:26;8.60;;;3.10;;
60436;SDS011;46289;51.992;4.498;2023-04-24T01:00:33;7.28;;;2.60;;
60436;SDS011;46289;51.992;4.498;2023-04-24T01:02:39;6.43;;;2.83;;
60436;SDS011;46289;51.992;4.498;2023-04-24T01:04:49;6.60;;;2.30;;
60436;SDS011;46289;51.992;4.498;2023-04-24T01:06:57;6.35;;;2.30;;
60436;SDS011;46289;51.992;4.498;2023-04-24T01:09:02;4.80;;;2.00;;
60436;SDS011;46289;51.992;4.498;2023-04-24T01:11:08;7.03;;;2.50;;
60436;SDS011;46289;51.992;4.498;2023-04-24T01:13:14;5.55;;;2.10;;
60436;SDS011;46289;51.992;4.498;2023-04-24T01:15:21;4.10;;;1.88;;
60436;SDS011;46289;51.992;4.498;2023-04-24T01:17:27;3.60;;;1.73;;
60436;SDS011;46289;51.992;4.498;2023-04-24T01:19:33;5.13;;;2.42;;
60436;SDS011;46289;51.992;4.498;2023-04-24T01:21:38;5.38;;;2.72;;
60436;SDS011;46289;51.992;4.498;2023-04-24T01:23:50;5.40;;;2.72;;
60436;SDS011;46289;51.992;4.498;2023-04-24T01:25:55;5.65;;;2.90;;
60436;SDS011;46289;51.992;4.498;2023-04-24T01:28:01;5.60;;;2.17;;
60436;SDS011;46289;51.992;4.498;2023-04-24T01:30:07;4.63;;;2.08;;
60436;SDS011;46289;51.992;4.498;2023-04-24T01:32:13;4.95;;;2.22;;
60436;SDS011;46289;51.992;4.498;2023-04-24T01:34:21;3.33;;;1.90;;
60436;SDS011;46289;51.992;4.498;2023-04-24T01:36:26;3.85;;;2.00;;
60436;SDS011;46289;51.992;4.498;2023-04-24T01:38:33;3.45;;;1.55;;
60436;SDS011;46289;51.992;4.498;2023-04-24T01:40:43;3.58;;;1.77;;
60436;SDS011;46289;51.992;4.498;2023-04-24T01:42:51;1.58;;;1.45;;
60436;SDS011;46289;51.992;4.498;2023-04-24T01:44:56;1.92;;;1.40;;
60436;SDS011;46289;51.992;4.498;2023-04-24T01:47:01;3.38;;;1.60;;
60436;SDS011;46289;51.992;4.498;2023-04-24T01:49:07;4.00;;;1.80;;
60436;SDS011;46289;51.992;4.498;2023-04-24T01:51:13;2.58;;;1.65;;
60436;SDS011;46289;51.992;4.498;2023-04-24T01:53:20;2.55;;;1.45;;
60436;SDS011;46289;51.992;4.498;2023-04-24T01:55:26;2.25;;;1.60;;
60436;SDS011;46289;51.992;4.498;2023-04-24T01:57:34;4.07;;;1.80;;
60436;SDS011;46289;51.992;4.498;2023-04-24T01:59:39;5.47;;;1.85;;
60436;SDS011;46289;51.992;4.498;2023-04-24T02:01:45;4.75;;;2.13;;
60436;SDS011;46289;51.992;4.498;2023-04-24T02:03:50;5.45;;;1.90;;
60436;SDS011;46289;51.992;4.498;2023-04-24T02:05:55;3.83;;;2.13;;
60436;SDS011;46289;51.992;4.498;2023-04-24T02:08:00;4.80;;;1.83;;
60436;SDS011;46289;51.992;4.498;2023-04-24T02:10:06;6.40;;;2.28;;
60436;SDS011;46289;51.992;4.498;2023-04-24T02:12:12;3.58;;;1.90;;
60436;SDS011;46289;51.992;4.498;2023-04-24T02:14:25;4.15;;;2.10;;
60436;SDS011;46289;51.992;4.498;2023-04-24T02:16:30;4.95;;;2.25;;
60436;SDS011;46289;51.992;4.498;2023-04-24T02:18:37;4.55;;;2.33;;
60436;SDS011;46289;51.992;4.498;2023-04-24T02:20:43;4.78;;;2.13;;
60436;SDS011;46289;51.992;4.498;2023-04-24T02:22:49;6.35;;;2.53;;
60436;SDS011;46289;51.992;4.498;2023-04-24T02:24:56;5.32;;;2.50;;
60436;SDS011;46289;51.992;4.498;2023-04-24T02:27:01;4.80;;;2.20;;
60436;SDS011;46289;51.992;4.498;2023-04-24T02:29:07;6.15;;;2.60;;
60436;SDS011;46289;51.992;4.498;2023-04-24T02:31:16;5.93;;;2.60;;
60436;SDS011;46289;51.992;4.498;2023-04-24T02:33:24;7.57;;;3.40;;
60436;SDS011;46289;51.992;4.498;2023-04-24T02:35:30;8.50;;;3.42;;
60436;SDS011;46289;51.992;4.498;2023-04-24T02:37:35;8.85;;;3.35;;
60436;SDS011;46289;51.992;4.498;2023-04-24T02:39:41;6.72;;;3.10;;
60436;SDS011;46289;51.992;4.498;2023-04-24T02:41:46;7.13;;;3.30;;
60436;SDS011;46289;51.992;4.498;2023-04-24T02:43:51;5.82;;;2.47;;
60436;SDS011;46289;51.992;4.498;2023-04-24T02:45:56;5.97;;;2.33;;
60436;SDS011;46289;51.992;4.498;2023-04-24T02:48:04;9.00;;;2.63;;
60436;SDS011;46289;51.992;4.498;2023-04-24T02:50:10;3.63;;;2.03;;
60436;SDS011;46289;51.992;4.498;2023-04-24T02:52:15;4.15;;;2.13;;
60436;SDS011;46289;51.992;4.498;2023-04-24T02:54:22;2.55;;;1.58;;
60436;SDS011;46289;51.992;4.498;2023-04-24T02:56:27;3.95;;;1.63;;
60436;SDS011;46289;51.992;4.498;2023-04-24T02:58:32;2.35;;;1.30;;
60436;SDS011;46289;51.992;4.498;2023-04-24T03:00:37;2.33;;;1.48;;
60436;SDS011;46289;51.992;4.498;2023-04-24T03:02:44;4.13;;;1.48;;
60436;SDS011;46289;51.992;4.498;2023-04-24T03:04:52;3.00;;;1.50;;
60436;SDS011;46289;51.992;4.498;2023-04-24T03:06:58;3.67;;;1.63;;
60436;SDS011;46289;51.992;4.498;2023-04-24T03:09:04;4.22;;;1.80;;
60436;SDS011;46289;51.992;4.498;2023-04-24T03:11:09;4.57;;;1.73;;
60436;SDS011;46289;51.992;4.498;2023-04-24T03:13:15;3.38;;;1.52;;
60436;SDS011;46289;51.992;4.498;2023-04-24T03:15:25;3.47;;;1.90;;
60436;SDS011;46289;51.992;4.498;2023-04-24T03:17:31;5.32;;;1.70;;
60436;SDS011;46289;51.992;4.498;2023-04-24T03:19:37;3.65;;;1.95;;
60436;SDS011;46289;51.992;4.498;2023-04-24T03:21:51;4.93;;;1.90;;
60436;SDS011;46289;51.992;4.498;2023-04-24T03:23:56;3.97;;;1.67;;
60436;SDS011;46289;51.992;4.498;2023-04-24T03:26:02;2.03;;;1.58;;
60436;SDS011;46289;51.992;4.498;2023-04-24T03:28:10;5.13;;;1.90;;
60436;SDS011;46289;51.992;4.498;2023-04-24T03:30:20;4.82;;;1.80;;
60436;SDS011;46289;51.992;4.498;2023-04-24T03:32:26;3.38;;;1.80;;
60436;SDS011;46289;51.992;4.498;2023-04-24T03:34:32;5.75;;;1.70;;
60436;SDS011;46289;51.992;4.498;2023-04-24T03:36:37;3.50;;;1.80;;
60436;SDS011;46289;51.992;4.498;2023-04-24T03:38:47;3.33;;;1.83;;
60436;SDS011;46289;51.992;4.498;2023-04-24T03:40:52;5.15;;;2.30;;
60436;SDS011;46289;51.992;4.498;2023-04-24T03:42:57;3.05;;;2.00;;
60436;SDS011;46289;51.992;4.498;2023-04-24T03:45:03;3.25;;;1.60;;
60436;SDS011;46289;51.992;4.498;2023-04-24T03:47:08;2.83;;;1.58;;
60436;SDS011;46289;51.992;4.498;2023-04-24T03:49:14;4.10;;;1.90;;
60436;SDS011;46289;51.992;4.498;2023-04-24T03:51:23;4.25;;;1.52;;
60436;SDS011;46289;51.992;4.498;2023-04-24T03:53:29;5.15;;;1.90;;
60436;SDS011;46289;51.992;4.498;2023-04-24T03:55:37;5.07;;;2.40;;
60436;SDS011;46289;51.992;4.498;2023-04-24T03:57:43;2.75;;;1.67;;
60436;SDS011;46289;51.992;4.498;2023-04-24T03:59:49;4.32;;;1.63;;
60436;SDS011;46289;51.992;4.498;2023-04-24T04:01:55;2.03;;;1.67;;
60436;SDS011;46289;51.992;4.498;2023-04-24T04:04:00;2.83;;;1.80;;
60436;SDS011;46289;51.992;4.498;2023-04-24T04:06:06;3.63;;;1.95;;
60436;SDS011;46289;51.992;4.498;2023-04-24T04:08:13;1.95;;;1.65;;
60436;SDS011;46289;51.992;4.498;2023-04-24T04:10:21;4.95;;;1.80;;
60436;SDS011;46289;51.992;4.498;2023-04-24T04:12:29;4.38;;;1.58;;
60436;SDS011;46289;51.992;4.498;2023-04-24T04:14:36;2.95;;;1.90;;
60436;SDS011;46289;51.992;4.498;2023-04-24T04:16:41;7.53;;;2.60;;
60436;SDS011;46289;51.992;4.498;2023-04-24T04:18:48;5.57;;;1.80;;
60436;SDS011;46289;51.992;4.498;2023-04-24T04:20:53;3.47;;;1.98;;
60436;SDS011;46289;51.992;4.498;2023-04-24T04:22:58;6.68;;;2.47;;
60436;SDS011;46289;51.992;4.498;2023-04-24T04:25:04;3.97;;;1.92;;
60436;SDS011;46289;51.992;4.498;2023-04-24T04:27:10;6.38;;;1.98;;
60436;SDS011;46289;51.992;4.498;2023-04-24T04:29:18;6.80;;;2.85;;
60436;SDS011;46289;51.992;4.498;2023-04-24T04:31:24;3.60;;;2.00;;
60436;SDS011;46289;51.992;4.498;2023-04-24T04:33:30;8.00;;;2.80;;
60436;SDS011;46289;51.992;4.498;2023-04-24T04:35:35;6.40;;;2.97;;
60436;SDS011;46289;51.992;4.498;2023-04-24T04:37:41;11.32;;;3.75;;
60436;SDS011;46289;51.992;4.498;2023-04-24T04:39:52;10.25;;;4.43;;
60436;SDS011;46289;51.992;4.498;2023-04-24T04:41:59;10.45;;;4.53;;
60436;SDS011;46289;51.992;4.498;2023-04-24T04:44:05;11.68;;;5.07;;
60436;SDS011;46289;51.992;4.498;2023-04-24T04:46:13;12.25;;;5.70;;
60436;SDS011;46289;51.992;4.498;2023-04-24T04:48:20;8.82;;;4.72;;
60436;SDS011;46289;51.992;4.498;2023-04-24T04:50:25;8.18;;;4.07;;
60436;SDS011;46289;51.992;4.498;2023-04-24T04:52:33;14.60;;;4.55;;
60436;SDS011;46289;51.992;4.498;2023-04-24T04:54:38;11.73;;;5.30;;
60436;SDS011;46289;51.992;4.498;2023-04-24T04:56:46;15.85;;;6.22;;
60436;SDS011;46289;51.992;4.498;2023-04-24T04:58:51;15.00;;;6.97;;
60436;SDS011;46289;51.992;4.498;2023-04-24T05:00:57;18.02;;;7.88;;
60436;SDS011;46289;51.992;4.498;2023-04-24T05:03:04;18.92;;;8.32;;
60436;SDS011;46289;51.992;4.498;2023-04-24T05:05:21;24.00;;;9.57;;
60436;SDS011;46289;51.992;4.498;2023-04-24T05:07:26;25.45;;;11.60;;
60436;SDS011;46289;51.992;4.498;2023-04-24T05:09:33;29.83;;;11.70;;
60436;SDS011;46289;51.992;4.498;2023-04-24T05:11:38;24.15;;;11.93;;
60436;SDS011;46289;51.992;4.498;2023-04-24T05:13:44;28.75;;;14.82;;
60436;SDS011;46289;51.992;4.498;2023-04-24T05:15:51;27.92;;;13.07;;
60436;SDS011;46289;51.992;4.498;2023-04-24T05:17:56;26.65;;;12.57;;
60436;SDS011;46289;51.992;4.498;2023-04-24T05:20:07;22.70;;;11.38;;
60436;SDS011;46289;51.992;4.498;2023-04-24T05:22:14;21.27;;;10.55;;
60436;SDS011;46289;51.992;4.498;2023-04-24T05:24:20;27.35;;;10.70;;
60436;SDS011;46289;51.992;4.498;2023-04-24T05:26:25;25.42;;;11.23;;
60436;SDS011;46289;51.992;4.498;2023-04-24T05:28:31;24.02;;;11.63;;
60436;SDS011;46289;51.992;4.498;2023-04-24T05:30:44;26.02;;;12.20;;
60436;SDS011;46289;51.992;4.498;2023-04-24T05:32:49;30.77;;;13.57;;
60436;SDS011;46289;51.992;4.498;2023-04-24T05:35:00;26.75;;;10.10;;
60436;SDS011;46289;51.992;4.498;2023-04-24T05:37:08;28.60;;;12.10;;
60436;SDS011;46289;51.992;4.498;2023-04-24T05:39:14;31.17;;;12.02;;
60436;SDS011;46289;51.992;4.498;2023-04-24T05:41:21;23.63;;;11.48;;
60436;SDS011;46289;51.992;4.498;2023-04-24T05:43:26;27.83;;;11.80;;
60436;SDS011;46289;51.992;4.498;2023-04-24T05:45:33;30.50;;;10.70;;
60436;SDS011;46289;51.992;4.498;2023-04-24T05:47:39;33.22;;;12.77;;
60436;SDS011;46289;51.992;4.498;2023-04-24T05:49:46;32.30;;;11.90;;
60436;SDS011;46289;51.992;4.498;2023-04-24T05:51:54;23.75;;;10.35;;
60436;SDS011;46289;51.992;4.498;2023-04-24T05:54:02;26.73;;;11.52;;
60436;SDS011;46289;51.992;4.498;2023-04-24T05:56:07;24.95;;;10.57;;
60436;SDS011;46289;51.992;4.498;2023-04-24T05:58:18;26.50;;;11.10;;
60436;SDS011;46289;51.992;4.498;2023-04-24T06:00:24;20.55;;;9.85;;
60436;SDS011;46289;51.992;4.498;2023-04-24T06:02:30;25.85;;;10.27;;
60436;SDS011;46289;51.992;4.498;2023-04-24T06:04:37;29.95;;;10.52;;
60436;SDS011;46289;51.992;4.498;2023-04-24T06:06:44;29.20;;;10.45;;
60436;SDS011;46289;51.992;4.498;2023-04-24T06:08:57;31.50;;;10.30;;
60436;SDS011;46289;51.992;4.498;2023-04-24T06:11:07;25.05;;;8.43;;
60436;SDS011;46289;51.992;4.498;2023-04-24T06:13:16;31.38;;;9.70;;
60436;SDS011;46289;51.992;4.498;2023-04-24T06:15:25;21.65;;;8.98;;
60436;SDS011;46289;51.992;4.498;2023-04-24T06:17:33;17.83;;;6.82;;
60436;SDS011;46289;51.992;4.498;2023-04-24T06:19:41;24.88;;;7.70;;
60436;SDS011;46289;51.992;4.498;2023-04-24T06:21:50;21.63;;;7.88;;
60436;SDS011;46289;51.992;4.498;2023-04-24T06:23:57;24.67;;;7.82;;
60436;SDS011;46289;51.992;4.498;2023-04-24T06:26:10;19.92;;;7.60;;
60436;SDS011;46289;51.992;4.498;2023-04-24T06:28:19;20.42;;;6.72;;
60436;SDS011;46289;51.992;4.498;2023-04-24T06:30:28;29.63;;;7.32;;
60436;SDS011;46289;51.992;4.498;2023-04-24T06:32:34;22.85;;;6.95;;
60436;SDS011;46289;51.992;4.498;2023-04-24T06:34:39;16.05;;;6.63;;
60436;SDS011;46289;51.992;4.498;2023-04-24T06:36:44;17.65;;;6.40;;
60436;SDS011;46289;51.992;4.498;2023-04-24T06:38:52;22.67;;;6.50;;
60436;SDS011;46289;51.992;4.498;2023-04-24T06:40:59;21.17;;;6.80;;
60436;SDS011;46289;51.992;4.498;2023-04-24T06:43:07;20.52;;;6.18;;
60436;SDS011;46289;51.992;4.498;2023-04-24T06:45:13;16.38;;;6.38;;
60436;SDS011;46289;51.992;4.498;2023-04-24T06:47:20;18.08;;;6.13;;
60436;SDS011;46289;51.992;4.498;2023-04-24T06:49:27;27.38;;;7.05;;
60436;SDS011;46289;51.992;4.498;2023-04-24T06:51:32;15.07;;;5.63;;
60436;SDS011;46289;51.992;4.498;2023-04-24T06:53:38;16.00;;;5.43;;
60436;SDS011;46289;51.992;4.498;2023-04-24T06:55:48;21.70;;;5.47;;
60436;SDS011;46289;51.992;4.498;2023-04-24T06:57:53;17.77;;;5.07;;
60436;SDS011;46289;51.992;4.498;2023-04-24T07:00:01;17.40;;;5.88;;
60436;SDS011;46289;51.992;4.498;2023-04-24T07:02:08;17.10;;;5.93;;
60436;SDS011;46289;51.992;4.498;2023-04-24T07:04:14;13.43;;;5.03;;
60436;SDS011;46289;51.992;4.498;2023-04-24T07:06:22;18.70;;;6.20;;
60436;SDS011;46289;51.992;4.498;2023-04-24T07:08:27;19.38;;;5.10;;
60436;SDS011;46289;51.992;4.498;2023-04-24T07:10:32;14.02;;;4.18;;
60436;SDS011;46289;51.992;4.498;2023-04-24T07:12:40;16.25;;;4.97;;
60436;SDS011;46289;51.992;4.498;2023-04-24T07:14:45;18.38;;;4.78;;
60436;SDS011;46289;51.992;4.498;2023-04-24T07:16:53;28.60;;;5.07;;
60436;SDS011;46289;51.992;4.498;2023-04-24T07:18:59;17.17;;;4.70;;
60436;SDS011;46289;51.992;4.498;2023-04-24T07:21:04;22.88;;;4.35;;
60436;SDS011;46289;51.992;4.498;2023-04-24T07:23:09;13.00;;;3.70;;
60436;SDS011;46289;51.992;4.498;2023-04-24T07:25:15;23.95;;;4.55;;
60436;SDS011;46289;51.992;4.498;2023-04-24T07:27:21;22.33;;;4.72;;
60436;SDS011;46289;51.992;4.498;2023-04-24T07:29:26;18.38;;;4.47;;
60436;SDS011;46289;51.992;4.498;2023-04-24T07:31:34;21.95;;;4.45;;
60436;SDS011;46289;51.992;4.498;2023-04-24T07:33:43;14.05;;;3.78;;
60436;SDS011;46289;51.992;4.498;2023-04-24T07:35:50;13.93;;;4.53;;
60436;SDS011;46289;51.992;4.498;2023-04-24T07:37:55;11.52;;;3.25;;
60436;SDS011;46289;51.992;4.498;2023-04-24T07:40:02;10.35;;;4.00;;
60436;SDS011;46289;51.992;4.498;2023-04-24T07:42:08;11.93;;;3.60;;
60436;SDS011;46289;51.992;4.498;2023-04-24T07:44:13;13.50;;;3.42;;
60436;SDS011;46289;51.992;4.498;2023-04-24T07:46:21;14.90;;;4.50;;
60436;SDS011;46289;51.992;4.498;2023-04-24T07:48:27;16.52;;;3.92;;
60436;SDS011;46289;51.992;4.498;2023-04-24T07:50:35;17.30;;;3.70;;
60436;SDS011;46289;51.992;4.498;2023-04-24T07:52:43;11.65;;;3.63;;
60436;SDS011;46289;51.992;4.498;2023-04-24T07:54:49;17.40;;;4.22;;
60436;SDS011;46289;51.992;4.498;2023-04-24T07:57:00;16.00;;;4.05;;
60436;SDS011;46289;51.992;4.498;2023-04-24T07:59:05;11.68;;;4.00;;
60436;SDS011;46289;51.992;4.498;2023-04-24T08:01:11;11.90;;;3.78;;
60436;SDS011;46289;51.992;4.498;2023-04-24T08:03:16;10.70;;;4.72;;
60436;SDS011;46289;51.992;4.498;2023-04-24T08:05:25;10.63;;;3.72;;
60436;SDS011;46289;51.992;4.498;2023-04-24T08:07:33;9.07;;;3.25;;
60436;SDS011;46289;51.992;4.498;2023-04-24T08:09:41;14.23;;;3.92;;
60436;SDS011;46289;51.992;4.498;2023-04-24T08:11:46;14.20;;;3.50;;
60436;SDS011;46289;51.992;4.498;2023-04-24T08:13:52;17.85;;;3.92;;
60436;SDS011;46289;51.992;4.498;2023-04-24T08:15:57;13.45;;;4.88;;
60436;SDS011;46289;51.992;4.498;2023-04-24T08:18:03;14.70;;;3.50;;
60436;SDS011;46289;51.992;4.498;2023-04-24T08:20:08;12.82;;;4.57;;
60436;SDS011;46289;51.992;4.498;2023-04-24T08:22:16;12.35;;;4.45;;
60436;SDS011;46289;51.992;4.498;2023-04-24T08:24:26;10.73;;;4.60;;
60436;SDS011;46289;51.992;4.498;2023-04-24T08:26:31;10.90;;;2.95;;
60436;SDS011;46289;51.992;4.498;2023-04-24T08:28:37;9.48;;;3.53;;
60436;SDS011;46289;51.992;4.498;2023-04-24T08:30:42;8.88;;;3.20;;
60436;SDS011;46289;51.992;4.498;2023-04-24T08:32:47;12.75;;;3.38;;
60436;SDS011;46289;51.992;4.498;2023-04-24T08:34:53;11.13;;;3.08;;
60436;SDS011;46289;51.992;4.498;2023-04-24T08:36:58;8.07;;;2.90;;
60436;SDS011;46289;51.992;4.498;2023-04-24T08:39:03;11.65;;;3.88;;
60436;SDS011;46289;51.992;4.498;2023-04-24T08:41:11;5.90;;;2.72;;
60436;SDS011;46289;51.992;4.498;2023-04-24T08:43:20;11.48;;;3.33;;
60436;SDS011;46289;51.992;4.498;2023-04-24T08:45:27;10.18;;;2.53;;
60436;SDS011;46289;51.992;4.498;2023-04-24T08:47:32;8.85;;;2.95;;
60436;SDS011;46289;51.992;4.498;2023-04-24T08:49:39;7.85;;;2.60;;
60436;SDS011;46289;51.992;4.498;2023-04-24T08:51:45;10.43;;;2.80;;
60436;SDS011;46289;51.992;4.498;2023-04-24T08:53:51;7.53;;;3.40;;
60436;SDS011;46289;51.992;4.498;2023-04-24T08:55:59;8.02;;;2.95;;
60436;SDS011;46289;51.992;4.498;2023-04-24T08:58:08;6.30;;;2.47;;
60436;SDS011;46289;51.992;4.498;2023-04-24T09:00:16;7.82;;;2.22;;
60436;SDS011;46289;51.992;4.498;2023-04-24T09:02:25;8.23;;;2.85;;
60436;SDS011;46289;51.992;4.498;2023-04-24T09:04:31;12.40;;;2.88;;
60436;SDS011;46289;51.992;4.498;2023-04-24T09:06:38;9.15;;;2.50;;
60436;SDS011;46289;51.992;4.498;2023-04-24T09:08:44;9.68;;;3.10;;
60436;SDS011;46289;51.992;4.498;2023-04-24T09:10:51;5.50;;;2.47;;
60436;SDS011;46289;51.992;4.498;2023-04-24T09:12:56;6.88;;;2.42;;
60436;SDS011;46289;51.992;4.498;2023-04-24T09:15:07;10.00;;;2.35;;
60436;SDS011;46289;51.992;4.498;2023-04-24T09:17:13;10.60;;;2.53;;
60436;SDS011;46289;51.992;4.498;2023-04-24T09:19:19;7.72;;;2.97;;
60436;SDS011;46289;51.992;4.498;2023-04-24T09:21:24;7.00;;;2.72;;
60436;SDS011;46289;51.992;4.498;2023-04-24T09:23:39;6.35;;;2.17;;
60436;SDS011;46289;51.992;4.498;2023-04-24T09:25:44;7.43;;;2.03;;
60436;SDS011;46289;51.992;4.498;2023-04-24T09:27:53;7.03;;;2.30;;
60436;SDS011;46289;51.992;4.498;2023-04-24T09:29:58;7.93;;;2.20;;
60436;SDS011;46289;51.992;4.498;2023-04-24T09:34:27;4.47;;;2.03;;
60436;SDS011;46289;51.992;4.498;2023-04-24T09:36:33;6.97;;;1.88;;
60436;SDS011;46289;51.992;4.498;2023-04-24T09:38:39;5.40;;;2.30;;
60436;SDS011;46289;51.992;4.498;2023-04-24T09:40:44;5.55;;;2.40;;
60436;SDS011;46289;51.992;4.498;2023-04-24T09:42:51;9.52;;;2.38;;
60436;SDS011;46289;51.992;4.498;2023-04-24T09:44:58;6.97;;;2.10;;
60436;SDS011;46289;51.992;4.498;2023-04-24T09:47:15;7.25;;;1.92;;
60436;SDS011;46289;51.992;4.498;2023-04-24T09:49:27;5.72;;;2.08;;
60436;SDS011;46289;51.992;4.498;2023-04-24T09:51:35;7.95;;;1.98;;
60436;SDS011;46289;51.992;4.498;2023-04-24T09:53:45;5.72;;;2.20;;
60436;SDS011;46289;51.992;4.498;2023-04-24T09:56:01;3.30;;;1.52;;
60436;SDS011;46289;51.992;4.498;2023-04-24T09:58:07;7.32;;;2.05;;
60436;SDS011;46289;51.992;4.498;2023-04-24T10:00:13;3.83;;;1.73;;
60436;SDS011;46289;51.992;4.498;2023-04-24T10:02:29;7.20;;;2.10;;
60436;SDS011;46289;51.992;4.498;2023-04-24T10:04:39;4.78;;;1.80;;
60436;SDS011;46289;51.992;4.498;2023-04-24T10:06:44;7.05;;;2.40;;
60436;SDS011;46289;51.992;4.498;2023-04-24T10:08:51;4.93;;;2.10;;
60436;SDS011;46289;51.992;4.498;2023-04-24T10:10:58;7.85;;;1.85;;
60436;SDS011;46289;51.992;4.498;2023-04-24T10:13:04;9.40;;;2.72;;
60436;SDS011;46289;51.992;4.498;2023-04-24T10:15:10;14.80;;;2.42;;
60436;SDS011;46289;51.992;4.498;2023-04-24T10:17:21;5.63;;;1.90;;
60436;SDS011;46289;51.992;4.498;2023-04-24T10:19:27;8.15;;;2.13;;
60436;SDS011;46289;51.992;4.498;2023-04-24T10:21:37;9.40;;;2.20;;
60436;SDS011;46289;51.992;4.498;2023-04-24T10:23:44;7.63;;;2.25;;
60436;SDS011;46289;51.992;4.498;2023-04-24T10:25:49;4.72;;;2.05;;
60436;SDS011;46289;51.992;4.498;2023-04-24T10:27:55;10.43;;;2.40;;
60436;SDS011;46289;51.992;4.498;2023-04-24T10:30:01;11.93;;;2.28;;
60436;SDS011;46289;51.992;4.498;2023-04-24T10:32:07;6.78;;;2.33;;
60436;SDS011;46289;51.992;4.498;2023-04-24T10:34:14;7.85;;;2.20;;
60436;SDS011;46289;51.992;4.498;2023-04-24T10:36:21;5.47;;;2.30;;
60436;SDS011;46289;51.992;4.498;2023-04-24T10:38:33;9.20;;;2.42;;
60436;SDS011;46289;51.992;4.498;2023-04-24T10:40:39;9.20;;;2.35;;
60436;SDS011;46289;51.992;4.498;2023-04-24T10:42:47;8.25;;;2.25;;
60436;SDS011;46289;51.992;4.498;2023-04-24T10:44:52;11.40;;;2.90;;
60436;SDS011;46289;51.992;4.498;2023-04-24T10:46:59;11.40;;;2.80;;
60436;SDS011;46289;51.992;4.498;2023-04-24T10:49:06;13.98;;;3.05;;
60436;SDS011;46289;51.992;4.498;2023-04-24T10:51:12;7.78;;;2.80;;
60436;SDS011;46289;51.992;4.498;2023-04-24T10:53:19;13.27;;;2.47;;
60436;SDS011;46289;51.992;4.498;2023-04-24T10:55:47;7.88;;;1.95;;
60436;SDS011;46289;51.992;4.498;2023-04-24T10:58:03;8.02;;;2.20;;
60436;SDS011;46289;51.992;4.498;2023-04-24T11:00:18;10.90;;;2.67;;
60436;SDS011;46289;51.992;4.498;2023-04-24T11:02:35;4.80;;;1.63;;
60436;SDS011;46289;51.992;4.498;2023-04-24T11:04:42;7.80;;;2.08;;
60436;SDS011;46289;51.992;4.498;2023-04-24T11:06:48;6.82;;;2.17;;
60436;SDS011;46289;51.992;4.498;2023-04-24T11:08:59;4.15;;;1.67;;
60436;SDS011;46289;51.992;4.498;2023-04-24T11:11:12;7.25;;;2.15;;
60436;SDS011;46289;51.992;4.498;2023-04-24T11:13:21;4.00;;;1.60;;
60436;SDS011;46289;51.992;4.498;2023-04-24T11:15:27;4.10;;;1.70;;
60436;SDS011;46289;51.992;4.498;2023-04-24T11:17:33;5.53;;;1.50;;
60436;SDS011;46289;51.992;4.498;2023-04-24T11:19:39;5.63;;;1.75;;
60436;SDS011;46289;51.992;4.498;2023-04-24T11:21:45;4.43;;;1.48;;
60436;SDS011;46289;51.992;4.498;2023-04-24T11:23:53;5.03;;;1.63;;
60436;SDS011;46289;51.992;4.498;2023-04-24T11:26:12;3.40;;;1.60;;
60436;SDS011;46289;51.992;4.498;2023-04-24T11:28:21;2.67;;;1.83;;
60436;SDS011;46289;51.992;4.498;2023-04-24T11:30:32;6.68;;;2.00;;
60436;SDS011;46289;51.992;4.498;2023-04-24T11:32:39;4.63;;;1.85;;
60436;SDS011;46289;51.992;4.498;2023-04-24T11:34:50;6.47;;;2.35;;
60436;SDS011;46289;51.992;4.498;2023-04-24T11:36:56;9.15;;;2.30;;
60436;SDS011;46289;51.992;4.498;2023-04-24T11:39:02;7.75;;;1.65;;
60436;SDS011;46289;51.992;4.498;2023-04-24T11:41:07;9.82;;;3.05;;
60436;SDS011;46289;51.992;4.498;2023-04-24T11:43:17;4.55;;;2.00;;
60436;SDS011;46289;51.992;4.498;2023-04-24T11:45:24;15.82;;;2.60;;
60436;SDS011;46289;51.992;4.498;2023-04-24T11:47:29;6.10;;;2.55;;
60436;SDS011;46289;51.992;4.498;2023-04-24T11:49:36;8.85;;;4.05;;
60436;SDS011;46289;51.992;4.498;2023-04-24T11:51:41;7.25;;;2.55;;
60436;SDS011;46289;51.992;4.498;2023-04-24T11:53:54;6.38;;;2.25;;
60436;SDS011;46289;51.992;4.498;2023-04-24T11:56:05;18.10;;;2.83;;
60436;SDS011;46289;51.992;4.498;2023-04-24T11:58:10;10.48;;;2.67;;
60436;SDS011;46289;51.992;4.498;2023-04-24T12:00:19;9.35;;;2.35;;
60436;SDS011;46289;51.992;4.498;2023-04-24T12:02:26;6.38;;;2.42;;
60436;SDS011;46289;51.992;4.498;2023-04-24T12:04:38;13.38;;;3.17;;
60436;SDS011;46289;51.992;4.498;2023-04-24T12:09:06;9.32;;;2.95;;
60436;SDS011;46289;51.992;4.498;2023-04-24T12:11:19;8.45;;;3.00;;
60436;SDS011;46289;51.992;4.498;2023-04-24T12:13:25;9.55;;;2.60;;
60436;SDS011;46289;51.992;4.498;2023-04-24T12:15:33;6.85;;;2.42;;
60436;SDS011;46289;51.992;4.498;2023-04-24T12:17:40;14.70;;;2.85;;
60436;SDS011;46289;51.992;4.498;2023-04-24T12:19:47;11.25;;;3.17;;
60436;SDS011;46289;51.992;4.498;2023-04-24T12:21:59;9.60;;;2.80;;
60436;SDS011;46289;51.992;4.498;2023-04-24T12:24:06;5.43;;;2.55;;
60436;SDS011;46289;51.992;4.498;2023-04-24T12:26:11;8.90;;;3.17;;
60436;SDS011;46289;51.992;4.498;2023-04-24T12:28:21;10.60;;;3.08;;
60436;SDS011;46289;51.992;4.498;2023-04-24T12:30:27;11.23;;;3.40;;
60436;SDS011;46289;51.992;4.498;2023-04-24T12:32:40;8.98;;;3.55;;
60436;SDS011;46289;51.992;4.498;2023-04-24T12:34:47;15.07;;;4.03;;
60436;SDS011;46289;51.992;4.498;2023-04-24T12:36:54;12.77;;;2.90;;
60436;SDS011;46289;51.992;4.498;2023-04-24T12:38:59;10.35;;;3.47;;
60436;SDS011;46289;51.992;4.498;2023-04-24T12:41:07;20.52;;;3.75;;
60436;SDS011;46289;51.992;4.498;2023-04-24T12:43:14;11.57;;;3.88;;
60436;SDS011;46289;51.992;4.498;2023-04-24T12:45:21;11.25;;;3.67;;